sensor_id;sensor_type;location;lat;lon;timestamp;P1;durP1;ratioP1;P2;durP2;ratioP2
64598;SDS011;51008;51.504;11.548;2023-05-21T00:00:49;42.13;;;26.23;;
64598;SDS011;51008;51.504;11.548;2023-05-21T00:05:50;44.50;;;28.23;;
64598;SDS011;51008;51.504;11.548;2023-05-21T00:10:51;46.13;;;27.85;;
64598;SDS011;51008;51.504;11.548;2023-05-21T00:15:52;49.40;;;28.67;;
64598;SDS011;51008;51.504;11.548;2023-05-21T00:20:53;47.25;;;27.23;;
64598;SDS011;51008;51.504;11.548;2023-05-21T00:25:54;49.60;;;28.55;;
64598;SDS011;51008;51.504;11.548;2023-05-21T00:30:54;45.35;;;27.77;;
64598;SDS011;51008;51.504;11.548;2023-05-21T00:35:55;50.72;;;28.25;;
64598;SDS011;51008;51.504;11.548;2023-05-21T00:40:58;46.75;;;28.80;;
64598;SDS011;51008;51.504;11.548;2023-05-21T00:46:02;45.60;;;28.30;;
64598;SDS011;51008;51.504;11.548;2023-05-21T00:51:03;48.28;;;28.85;;
64598;SDS011;51008;51.504;11.548;2023-05-21T00:56:04;48.67;;;28.08;;
64598;SDS011;51008;51.504;11.548;2023-05-21T01:01:05;48.92;;;29.92;;
64598;SDS011;51008;51.504;11.548;2023-05-21T01:06:07;45.95;;;28.65;;
64598;SDS011;51008;51.504;11.548;2023-05-21T01:11:09;51.47;;;30.60;;
64598;SDS011;51008;51.504;11.548;2023-05-21T01:16:11;49.25;;;30.08;;
64598;SDS011;51008;51.504;11.548;2023-05-21T01:21:12;50.75;;;29.52;;
64598;SDS011;51008;51.504;11.548;2023-05-21T01:26:13;46.80;;;28.55;;
64598;SDS011;51008;51.504;11.548;2023-05-21T01:31:33;48.67;;;29.25;;
64598;SDS011;51008;51.504;11.548;2023-05-21T01:36:42;47.55;;;28.73;;
64598;SDS011;51008;51.504;11.548;2023-05-21T01:42:02;52.65;;;28.70;;
64598;SDS011;51008;51.504;11.548;2023-05-21T01:47:07;51.08;;;29.98;;
64598;SDS011;51008;51.504;11.548;2023-05-21T01:52:09;49.80;;;29.45;;
64598;SDS011;51008;51.504;11.548;2023-05-21T01:57:10;52.90;;;29.88;;
64598;SDS011;51008;51.504;11.548;2023-05-21T02:02:11;54.83;;;31.15;;
64598;SDS011;51008;51.504;11.548;2023-05-21T02:07:12;53.92;;;31.65;;
64598;SDS011;51008;51.504;11.548;2023-05-21T02:12:13;55.38;;;32.28;;
64598;SDS011;51008;51.504;11.548;2023-05-21T02:17:14;52.00;;;31.35;;
64598;SDS011;51008;51.504;11.548;2023-05-21T02:22:16;57.83;;;31.13;;
64598;SDS011;51008;51.504;11.548;2023-05-21T02:27:17;52.85;;;30.55;;
64598;SDS011;51008;51.504;11.548;2023-05-21T02:32:18;51.35;;;30.92;;
64598;SDS011;51008;51.504;11.548;2023-05-21T02:37:19;49.20;;;29.13;;
64598;SDS011;51008;51.504;11.548;2023-05-21T02:42:20;49.70;;;29.85;;
64598;SDS011;51008;51.504;11.548;2023-05-21T02:47:22;50.05;;;29.73;;
64598;SDS011;51008;51.504;11.548;2023-05-21T02:52:24;45.17;;;27.58;;
64598;SDS011;51008;51.504;11.548;2023-05-21T02:57:25;41.35;;;25.73;;
64598;SDS011;51008;51.504;11.548;2023-05-21T03:02:26;45.53;;;28.05;;
64598;SDS011;51008;51.504;11.548;2023-05-21T03:07:28;44.40;;;27.50;;
64598;SDS011;51008;51.504;11.548;2023-05-21T03:12:29;45.15;;;27.33;;
64598;SDS011;51008;51.504;11.548;2023-05-21T03:17:30;41.33;;;25.10;;
64598;SDS011;51008;51.504;11.548;2023-05-21T03:22:31;43.72;;;26.05;;
64598;SDS011;51008;51.504;11.548;2023-05-21T03:27:32;44.63;;;27.30;;
64598;SDS011;51008;51.504;11.548;2023-05-21T03:32:36;45.58;;;25.98;;
64598;SDS011;51008;51.504;11.548;2023-05-21T03:37:39;45.08;;;26.85;;
64598;SDS011;51008;51.504;11.548;2023-05-21T03:42:40;45.15;;;28.63;;
64598;SDS011;51008;51.504;11.548;2023-05-21T03:47:41;49.17;;;28.65;;
64598;SDS011;51008;51.504;11.548;2023-05-21T03:52:43;41.70;;;25.92;;
64598;SDS011;51008;51.504;11.548;2023-05-21T03:57:45;44.30;;;27.60;;
64598;SDS011;51008;51.504;11.548;2023-05-21T04:02:46;45.13;;;28.05;;
64598;SDS011;51008;51.504;11.548;2023-05-21T04:07:50;49.13;;;27.35;;
64598;SDS011;51008;51.504;11.548;2023-05-21T04:12:51;44.13;;;27.13;;
64598;SDS011;51008;51.504;11.548;2023-05-21T04:17:52;46.15;;;28.23;;
64598;SDS011;51008;51.504;11.548;2023-05-21T04:22:53;53.72;;;31.58;;
64598;SDS011;51008;51.504;11.548;2023-05-21T04:27:54;52.65;;;31.40;;
64598;SDS011;51008;51.504;11.548;2023-05-21T04:32:56;56.58;;;33.33;;
64598;SDS011;51008;51.504;11.548;2023-05-21T04:37:57;59.70;;;34.28;;
64598;SDS011;51008;51.504;11.548;2023-05-21T04:42:58;57.45;;;33.03;;
64598;SDS011;51008;51.504;11.548;2023-05-21T04:48:00;52.17;;;31.40;;
64598;SDS011;51008;51.504;11.548;2023-05-21T04:53:02;57.25;;;34.45;;
64598;SDS011;51008;51.504;11.548;2023-05-21T04:58:04;58.10;;;33.90;;
64598;SDS011;51008;51.504;11.548;2023-05-21T05:03:05;55.42;;;33.88;;
64598;SDS011;51008;51.504;11.548;2023-05-21T05:08:06;58.83;;;33.80;;
64598;SDS011;51008;51.504;11.548;2023-05-21T05:13:08;54.13;;;32.85;;
64598;SDS011;51008;51.504;11.548;2023-05-21T05:18:08;53.08;;;33.33;;
64598;SDS011;51008;51.504;11.548;2023-05-21T05:23:10;51.63;;;32.08;;
64598;SDS011;51008;51.504;11.548;2023-05-21T05:28:12;54.33;;;32.50;;
64598;SDS011;51008;51.504;11.548;2023-05-21T05:33:13;49.72;;;31.58;;
64598;SDS011;51008;51.504;11.548;2023-05-21T05:38:14;51.75;;;31.65;;
64598;SDS011;51008;51.504;11.548;2023-05-21T05:43:16;48.72;;;31.08;;
64598;SDS011;51008;51.504;11.548;2023-05-21T05:48:17;48.38;;;30.20;;
64598;SDS011;51008;51.504;11.548;2023-05-21T05:53:19;47.42;;;30.35;;
64598;SDS011;51008;51.504;11.548;2023-05-21T05:58:20;46.30;;;29.90;;
64598;SDS011;51008;51.504;11.548;2023-05-21T06:03:29;46.65;;;30.23;;
64598;SDS011;51008;51.504;11.548;2023-05-21T06:08:31;50.97;;;31.25;;
64598;SDS011;51008;51.504;11.548;2023-05-21T06:13:32;49.45;;;30.80;;
64598;SDS011;51008;51.504;11.548;2023-05-21T06:18:33;48.33;;;30.17;;
64598;SDS011;51008;51.504;11.548;2023-05-21T06:23:34;52.50;;;31.88;;
64598;SDS011;51008;51.504;11.548;2023-05-21T06:28:35;44.35;;;30.25;;
64598;SDS011;51008;51.504;11.548;2023-05-21T06:33:36;47.88;;;30.27;;
64598;SDS011;51008;51.504;11.548;2023-05-21T06:38:37;48.30;;;31.13;;
64598;SDS011;51008;51.504;11.548;2023-05-21T06:43:38;43.20;;;29.40;;
64598;SDS011;51008;51.504;11.548;2023-05-21T06:48:58;48.45;;;30.35;;
64598;SDS011;51008;51.504;11.548;2023-05-21T06:53:59;46.30;;;30.58;;
64598;SDS011;51008;51.504;11.548;2023-05-21T06:59:00;43.85;;;29.80;;
64598;SDS011;51008;51.504;11.548;2023-05-21T07:04:01;44.38;;;29.92;;
64598;SDS011;51008;51.504;11.548;2023-05-21T07:09:05;43.60;;;28.75;;
64598;SDS011;51008;51.504;11.548;2023-05-21T07:14:07;42.53;;;29.48;;
64598;SDS011;51008;51.504;11.548;2023-05-21T07:19:10;45.03;;;29.55;;
64598;SDS011;51008;51.504;11.548;2023-05-21T07:24:12;49.10;;;30.17;;
64598;SDS011;51008;51.504;11.548;2023-05-21T07:29:14;50.13;;;29.30;;
64598;SDS011;51008;51.504;11.548;2023-05-21T07:34:15;41.00;;;27.65;;
64598;SDS011;51008;51.504;11.548;2023-05-21T07:39:16;37.78;;;26.30;;
64598;SDS011;51008;51.504;11.548;2023-05-21T07:44:18;35.97;;;25.77;;
64598;SDS011;51008;51.504;11.548;2023-05-21T07:49:20;39.17;;;27.27;;
64598;SDS011;51008;51.504;11.548;2023-05-21T07:54:22;41.40;;;26.02;;
64598;SDS011;51008;51.504;11.548;2023-05-21T07:59:23;38.20;;;25.67;;
64598;SDS011;51008;51.504;11.548;2023-05-21T08:04:25;38.00;;;25.58;;
64598;SDS011;51008;51.504;11.548;2023-05-21T08:09:26;34.83;;;24.73;;
64598;SDS011;51008;51.504;11.548;2023-05-21T08:14:28;33.50;;;23.90;;
64598;SDS011;51008;51.504;11.548;2023-05-21T08:19:30;32.25;;;22.67;;
64598;SDS011;51008;51.504;11.548;2023-05-21T08:24:31;34.13;;;22.95;;
64598;SDS011;51008;51.504;11.548;2023-05-21T08:29:32;37.50;;;22.90;;
64598;SDS011;51008;51.504;11.548;2023-05-21T08:34:33;30.63;;;22.23;;
64598;SDS011;51008;51.504;11.548;2023-05-21T08:39:54;31.20;;;22.90;;
64598;SDS011;51008;51.504;11.548;2023-05-21T08:44:58;28.83;;;22.50;;
64598;SDS011;51008;51.504;11.548;2023-05-21T08:50:01;36.63;;;24.40;;
64598;SDS011;51008;51.504;11.548;2023-05-21T08:55:04;34.05;;;22.73;;
64598;SDS011;51008;51.504;11.548;2023-05-21T09:00:07;33.50;;;23.48;;
64598;SDS011;51008;51.504;11.548;2023-05-21T09:05:10;27.00;;;21.20;;
64598;SDS011;51008;51.504;11.548;2023-05-21T09:10:13;29.65;;;21.15;;
64598;SDS011;51008;51.504;11.548;2023-05-21T09:15:15;30.98;;;21.55;;
64598;SDS011;51008;51.504;11.548;2023-05-21T09:20:17;29.75;;;21.80;;
64598;SDS011;51008;51.504;11.548;2023-05-21T09:25:29;25.73;;;19.40;;
64598;SDS011;51008;51.504;11.548;2023-05-21T09:30:34;30.15;;;21.55;;
64598;SDS011;51008;51.504;11.548;2023-05-21T09:35:36;30.70;;;22.17;;
64598;SDS011;51008;51.504;11.548;2023-05-21T09:40:42;27.75;;;20.70;;
64598;SDS011;51008;51.504;11.548;2023-05-21T09:45:51;29.67;;;21.02;;
64598;SDS011;51008;51.504;11.548;2023-05-21T09:51:16;30.35;;;21.63;;
64598;SDS011;51008;51.504;11.548;2023-05-21T09:56:22;32.85;;;21.80;;
64598;SDS011;51008;51.504;11.548;2023-05-21T10:01:25;30.25;;;20.70;;
64598;SDS011;51008;51.504;11.548;2023-05-21T10:06:28;27.50;;;20.15;;
64598;SDS011;51008;51.504;11.548;2023-05-21T10:11:30;29.20;;;20.65;;
64598;SDS011;51008;51.504;11.548;2023-05-21T10:16:32;25.17;;;19.13;;
64598;SDS011;51008;51.504;11.548;2023-05-21T10:21:33;25.63;;;18.23;;
64598;SDS011;51008;51.504;11.548;2023-05-21T10:26:34;22.53;;;16.33;;
64598;SDS011;51008;51.504;11.548;2023-05-21T10:31:37;25.07;;;17.73;;
64598;SDS011;51008;51.504;11.548;2023-05-21T10:36:38;27.90;;;17.90;;
64598;SDS011;51008;51.504;11.548;2023-05-21T10:41:43;22.95;;;16.63;;
64598;SDS011;51008;51.504;11.548;2023-05-21T10:47:04;22.75;;;15.73;;
64598;SDS011;51008;51.504;11.548;2023-05-21T10:52:24;20.63;;;16.05;;
64598;SDS011;51008;51.504;11.548;2023-05-21T10:57:58;24.13;;;16.23;;
64598;SDS011;51008;51.504;11.548;2023-05-21T11:03:04;23.92;;;16.88;;
64598;SDS011;51008;51.504;11.548;2023-05-21T11:08:28;20.80;;;16.17;;
64598;SDS011;51008;51.504;11.548;2023-05-21T11:13:43;22.25;;;16.20;;
64598;SDS011;51008;51.504;11.548;2023-05-21T11:29:11;26.80;;;16.35;;
64598;SDS011;51008;51.504;11.548;2023-05-21T11:34:17;22.33;;;16.38;;
64598;SDS011;51008;51.504;11.548;2023-05-21T11:39:19;22.42;;;16.48;;
64598;SDS011;51008;51.504;11.548;2023-05-21T11:44:36;23.88;;;16.80;;
64598;SDS011;51008;51.504;11.548;2023-05-21T11:54:42;23.92;;;16.27;;
64598;SDS011;51008;51.504;11.548;2023-05-21T11:59:44;23.83;;;16.30;;
64598;SDS011;51008;51.504;11.548;2023-05-21T12:04:47;21.67;;;16.52;;
64598;SDS011;51008;51.504;11.548;2023-05-21T12:09:49;21.85;;;15.65;;
64598;SDS011;51008;51.504;11.548;2023-05-21T12:14:51;23.20;;;15.45;;
64598;SDS011;51008;51.504;11.548;2023-05-21T12:19:54;21.90;;;15.25;;
64598;SDS011;51008;51.504;11.548;2023-05-21T12:24:55;21.15;;;16.08;;
64598;SDS011;51008;51.504;11.548;2023-05-21T12:29:56;23.35;;;15.85;;
64598;SDS011;51008;51.504;11.548;2023-05-21T12:34:57;19.15;;;15.05;;
64598;SDS011;51008;51.504;11.548;2023-05-21T12:39:58;22.90;;;14.93;;
64598;SDS011;51008;51.504;11.548;2023-05-21T12:45:00;22.50;;;14.60;;
64598;SDS011;51008;51.504;11.548;2023-05-21T12:50:10;20.13;;;14.80;;
64598;SDS011;51008;51.504;11.548;2023-05-21T12:55:14;20.85;;;14.57;;
64598;SDS011;51008;51.504;11.548;2023-05-21T13:00:21;22.80;;;14.75;;
64598;SDS011;51008;51.504;11.548;2023-05-21T13:05:23;23.83;;;14.30;;
64598;SDS011;51008;51.504;11.548;2023-05-21T13:10:24;26.25;;;14.63;;
64598;SDS011;51008;51.504;11.548;2023-05-21T13:15:24;20.88;;;13.20;;
64598;SDS011;51008;51.504;11.548;2023-05-21T13:20:25;26.38;;;12.90;;
64598;SDS011;51008;51.504;11.548;2023-05-21T13:25:26;18.52;;;12.65;;
64598;SDS011;51008;51.504;11.548;2023-05-21T13:30:27;15.68;;;11.77;;
64598;SDS011;51008;51.504;11.548;2023-05-21T13:35:28;17.00;;;12.57;;
64598;SDS011;51008;51.504;11.548;2023-05-21T13:40:29;19.30;;;13.05;;
64598;SDS011;51008;51.504;11.548;2023-05-21T13:45:30;25.67;;;14.00;;
64598;SDS011;51008;51.504;11.548;2023-05-21T13:50:32;16.45;;;12.75;;
64598;SDS011;51008;51.504;11.548;2023-05-21T13:55:33;20.42;;;13.20;;
64598;SDS011;51008;51.504;11.548;2023-05-21T14:00:34;21.13;;;13.40;;
64598;SDS011;51008;51.504;11.548;2023-05-21T14:05:35;16.00;;;12.57;;
64598;SDS011;51008;51.504;11.548;2023-05-21T14:10:36;19.98;;;13.60;;
64598;SDS011;51008;51.504;11.548;2023-05-21T14:15:37;19.92;;;14.15;;
64598;SDS011;51008;51.504;11.548;2023-05-21T14:20:38;19.88;;;13.48;;
64598;SDS011;51008;51.504;11.548;2023-05-21T14:25:40;18.45;;;13.00;;
64598;SDS011;51008;51.504;11.548;2023-05-21T14:30:41;19.03;;;13.23;;
64598;SDS011;51008;51.504;11.548;2023-05-21T14:35:42;19.27;;;13.82;;
64598;SDS011;51008;51.504;11.548;2023-05-21T14:40:43;23.20;;;13.82;;
64598;SDS011;51008;51.504;11.548;2023-05-21T14:45:44;22.30;;;13.70;;
64598;SDS011;51008;51.504;11.548;2023-05-21T14:50:45;18.38;;;13.27;;
64598;SDS011;51008;51.504;11.548;2023-05-21T14:55:46;24.60;;;14.10;;
64598;SDS011;51008;51.504;11.548;2023-05-21T15:00:47;20.75;;;13.93;;
64598;SDS011;51008;51.504;11.548;2023-05-21T15:05:48;22.25;;;13.20;;
64598;SDS011;51008;51.504;11.548;2023-05-21T15:10:49;21.05;;;13.70;;
64598;SDS011;51008;51.504;11.548;2023-05-21T15:15:50;27.20;;;14.60;;
64598;SDS011;51008;51.504;11.548;2023-05-21T15:20:51;23.35;;;14.80;;
64598;SDS011;51008;51.504;11.548;2023-05-21T15:25:51;21.33;;;13.93;;
64598;SDS011;51008;51.504;11.548;2023-05-21T15:30:52;22.50;;;14.98;;
64598;SDS011;51008;51.504;11.548;2023-05-21T15:35:53;20.55;;;15.52;;
64598;SDS011;51008;51.504;11.548;2023-05-21T15:40:54;23.40;;;15.48;;
64598;SDS011;51008;51.504;11.548;2023-05-21T15:45:56;24.65;;;15.73;;
64598;SDS011;51008;51.504;11.548;2023-05-21T15:50:57;28.65;;;15.18;;
64598;SDS011;51008;51.504;11.548;2023-05-21T15:55:58;26.48;;;13.85;;
64598;SDS011;51008;51.504;11.548;2023-05-21T16:00:59;19.88;;;14.57;;
64598;SDS011;51008;51.504;11.548;2023-05-21T16:06:00;18.77;;;13.73;;
64598;SDS011;51008;51.504;11.548;2023-05-21T16:11:01;19.33;;;13.05;;
64598;SDS011;51008;51.504;11.548;2023-05-21T16:16:02;22.08;;;14.05;;
64598;SDS011;51008;51.504;11.548;2023-05-21T16:21:04;21.60;;;14.77;;
64598;SDS011;51008;51.504;11.548;2023-05-21T16:26:05;22.05;;;16.25;;
64598;SDS011;51008;51.504;11.548;2023-05-21T16:31:06;26.90;;;17.30;;
64598;SDS011;51008;51.504;11.548;2023-05-21T16:36:07;24.05;;;17.02;;
64598;SDS011;51008;51.504;11.548;2023-05-21T16:41:08;25.70;;;17.38;;
64598;SDS011;51008;51.504;11.548;2023-05-21T16:46:09;24.20;;;17.10;;
64598;SDS011;51008;51.504;11.548;2023-05-21T16:51:10;23.42;;;16.88;;
64598;SDS011;51008;51.504;11.548;2023-05-21T16:56:11;22.23;;;15.93;;
64598;SDS011;51008;51.504;11.548;2023-05-21T17:01:12;24.98;;;16.10;;
64598;SDS011;51008;51.504;11.548;2023-05-21T17:06:13;23.05;;;15.73;;
64598;SDS011;51008;51.504;11.548;2023-05-21T17:11:15;21.35;;;14.70;;
64598;SDS011;51008;51.504;11.548;2023-05-21T17:16:16;19.75;;;14.13;;
64598;SDS011;51008;51.504;11.548;2023-05-21T17:21:17;25.45;;;13.88;;
64598;SDS011;51008;51.504;11.548;2023-05-21T17:26:18;28.52;;;13.32;;
64598;SDS011;51008;51.504;11.548;2023-05-21T17:31:19;21.30;;;12.73;;
64598;SDS011;51008;51.504;11.548;2023-05-21T17:36:20;20.25;;;12.90;;
64598;SDS011;51008;51.504;11.548;2023-05-21T17:41:21;24.63;;;13.88;;
64598;SDS011;51008;51.504;11.548;2023-05-21T17:46:22;19.75;;;13.27;;
64598;SDS011;51008;51.504;11.548;2023-05-21T17:51:23;19.17;;;13.68;;
64598;SDS011;51008;51.504;11.548;2023-05-21T17:56:24;18.98;;;13.43;;
64598;SDS011;51008;51.504;11.548;2023-05-21T18:01:25;23.30;;;14.05;;
64598;SDS011;51008;51.504;11.548;2023-05-21T18:06:26;19.08;;;13.10;;
64598;SDS011;51008;51.504;11.548;2023-05-21T18:11:28;21.25;;;14.13;;
64598;SDS011;51008;51.504;11.548;2023-05-21T18:16:29;24.10;;;14.50;;
64598;SDS011;51008;51.504;11.548;2023-05-21T18:21:30;23.33;;;14.60;;
64598;SDS011;51008;51.504;11.548;2023-05-21T18:31:33;21.25;;;12.95;;
64598;SDS011;51008;51.504;11.548;2023-05-21T18:36:34;17.50;;;13.00;;
64598;SDS011;51008;51.504;11.548;2023-05-21T18:41:35;22.55;;;13.60;;
64598;SDS011;51008;51.504;11.548;2023-05-21T18:46:37;20.33;;;13.13;;
64598;SDS011;51008;51.504;11.548;2023-05-21T18:51:38;20.23;;;13.63;;
64598;SDS011;51008;51.504;11.548;2023-05-21T18:56:40;24.05;;;14.80;;
64598;SDS011;51008;51.504;11.548;2023-05-21T19:01:43;23.92;;;14.13;;
64598;SDS011;51008;51.504;11.548;2023-05-21T19:06:44;23.15;;;14.57;;
64598;SDS011;51008;51.504;11.548;2023-05-21T19:11:46;25.38;;;16.05;;
64598;SDS011;51008;51.504;11.548;2023-05-21T19:16:47;26.20;;;14.57;;
64598;SDS011;51008;51.504;11.548;2023-05-21T19:21:47;21.30;;;14.63;;
64598;SDS011;51008;51.504;11.548;2023-05-21T19:26:48;21.73;;;13.98;;
64598;SDS011;51008;51.504;11.548;2023-05-21T19:31:49;22.88;;;14.88;;
64598;SDS011;51008;51.504;11.548;2023-05-21T19:36:51;40.78;;;16.00;;
64598;SDS011;51008;51.504;11.548;2023-05-21T19:41:52;36.35;;;16.67;;
64598;SDS011;51008;51.504;11.548;2023-05-21T19:46:53;28.75;;;16.95;;
64598;SDS011;51008;51.504;11.548;2023-05-21T19:51:53;26.77;;;15.38;;
64598;SDS011;51008;51.504;11.548;2023-05-21T19:56:54;24.83;;;15.23;;
64598;SDS011;51008;51.504;11.548;2023-05-21T20:01:55;25.20;;;15.57;;
64598;SDS011;51008;51.504;11.548;2023-05-21T20:06:56;21.73;;;15.10;;
64598;SDS011;51008;51.504;11.548;2023-05-21T20:11:57;23.33;;;15.52;;
64598;SDS011;51008;51.504;11.548;2023-05-21T20:17:01;22.85;;;15.10;;
64598;SDS011;51008;51.504;11.548;2023-05-21T20:22:03;24.05;;;15.52;;
64598;SDS011;51008;51.504;11.548;2023-05-21T20:27:04;23.42;;;15.43;;
64598;SDS011;51008;51.504;11.548;2023-05-21T20:32:05;27.42;;;16.60;;
64598;SDS011;51008;51.504;11.548;2023-05-21T20:37:06;22.88;;;15.05;;
64598;SDS011;51008;51.504;11.548;2023-05-21T20:42:07;23.55;;;14.93;;
64598;SDS011;51008;51.504;11.548;2023-05-21T20:47:08;27.60;;;16.63;;
64598;SDS011;51008;51.504;11.548;2023-05-21T20:52:09;21.95;;;15.57;;
64598;SDS011;51008;51.504;11.548;2023-05-21T20:57:10;24.73;;;15.23;;
64598;SDS011;51008;51.504;11.548;2023-05-21T21:02:11;29.58;;;16.58;;
64598;SDS011;51008;51.504;11.548;2023-05-21T21:07:12;22.25;;;15.65;;
64598;SDS011;51008;51.504;11.548;2023-05-21T21:12:14;26.05;;;15.38;;
64598;SDS011;51008;51.504;11.548;2023-05-21T21:17:15;26.55;;;15.60;;
64598;SDS011;51008;51.504;11.548;2023-05-21T21:22:16;22.45;;;14.85;;
64598;SDS011;51008;51.504;11.548;2023-05-21T21:27:17;23.30;;;15.20;;
64598;SDS011;51008;51.504;11.548;2023-05-21T21:32:18;22.25;;;14.70;;
64598;SDS011;51008;51.504;11.548;2023-05-21T21:37:19;24.00;;;15.20;;
64598;SDS011;51008;51.504;11.548;2023-05-21T21:42:21;22.33;;;14.88;;
64598;SDS011;51008;51.504;11.548;2023-05-21T21:47:22;24.02;;;15.48;;
64598;SDS011;51008;51.504;11.548;2023-05-21T21:52:23;22.85;;;15.25;;
64598;SDS011;51008;51.504;11.548;2023-05-21T21:57:24;23.38;;;15.40;;
64598;SDS011;51008;51.504;11.548;2023-05-21T22:02:25;22.75;;;15.07;;
64598;SDS011;51008;51.504;11.548;2023-05-21T22:07:26;23.30;;;15.05;;
64598;SDS011;51008;51.504;11.548;2023-05-21T22:12:26;25.13;;;15.65;;
64598;SDS011;51008;51.504;11.548;2023-05-21T22:17:27;22.38;;;14.38;;
64598;SDS011;51008;51.504;11.548;2023-05-21T22:22:28;25.67;;;14.57;;
64598;SDS011;51008;51.504;11.548;2023-05-21T22:27:29;25.15;;;15.70;;
64598;SDS011;51008;51.504;11.548;2023-05-21T22:32:30;24.25;;;15.38;;
64598;SDS011;51008;51.504;11.548;2023-05-21T22:37:31;21.80;;;15.32;;
64598;SDS011;51008;51.504;11.548;2023-05-21T22:42:33;28.83;;;16.10;;
64598;SDS011;51008;51.504;11.548;2023-05-21T22:47:34;28.00;;;17.05;;
64598;SDS011;51008;51.504;11.548;2023-05-21T22:52:35;27.98;;;17.58;;
64598;SDS011;51008;51.504;11.548;2023-05-21T22:57:36;25.58;;;16.15;;
64598;SDS011;51008;51.504;11.548;2023-05-21T23:02:37;26.60;;;16.00;;
64598;SDS011;51008;51.504;11.548;2023-05-21T23:07:38;30.15;;;18.00;;
64598;SDS011;51008;51.504;11.548;2023-05-21T23:12:39;27.88;;;17.95;;
64598;SDS011;51008;51.504;11.548;2023-05-21T23:17:40;27.48;;;15.85;;
64598;SDS011;51008;51.504;11.548;2023-05-21T23:22:41;33.80;;;18.15;;
64598;SDS011;51008;51.504;11.548;2023-05-21T23:27:42;30.58;;;16.15;;
64598;SDS011;51008;51.504;11.548;2023-05-21T23:32:43;25.92;;;15.52;;
64598;SDS011;51008;51.504;11.548;2023-05-21T23:37:44;23.60;;;15.88;;
64598;SDS011;51008;51.504;11.548;2023-05-21T23:42:45;23.38;;;15.18;;
64598;SDS011;51008;51.504;11.548;2023-05-21T23:47:46;22.65;;;15.65;;
64598;SDS011;51008;51.504;11.548;2023-05-21T23:52:46;26.02;;;15.98;;
64598;SDS011;51008;51.504;11.548;2023-05-21T23:57:47;26.55;;;16.95;;
